sensor_id;sensor_type;location;lat;lon;timestamp;P1;durP1;ratioP1;P2;durP2;ratioP2
30539;SDS011;17321;46.312;4.776;2023-12-04T00:00:38;23.75;;;15.27;;
30539;SDS011;17321;46.312;4.776;2023-12-04T00:03:04;22.60;;;13.85;;
30539;SDS011;17321;46.312;4.776;2023-12-04T00:05:30;22.52;;;15.00;;
30539;SDS011;17321;46.312;4.776;2023-12-04T00:07:56;25.30;;;15.55;;
30539;SDS011;17321;46.312;4.776;2023-12-04T00:10:22;24.15;;;15.68;;
30539;SDS011;17321;46.312;4.776;2023-12-04T00:12:48;19.77;;;14.13;;
30539;SDS011;17321;46.312;4.776;2023-12-04T00:15:14;24.83;;;14.80;;
30539;SDS011;17321;46.312;4.776;2023-12-04T00:17:41;23.70;;;15.93;;
30539;SDS011;17321;46.312;4.776;2023-12-04T00:20:07;21.33;;;14.05;;
30539;SDS011;17321;46.312;4.776;2023-12-04T00:22:34;23.67;;;16.00;;
30539;SDS011;17321;46.312;4.776;2023-12-04T00:25:01;20.08;;;14.10;;
30539;SDS011;17321;46.312;4.776;2023-12-04T00:27:28;21.45;;;14.02;;
30539;SDS011;17321;46.312;4.776;2023-12-04T00:29:54;22.13;;;14.25;;
30539;SDS011;17321;46.312;4.776;2023-12-04T00:32:20;23.38;;;15.70;;
30539;SDS011;17321;46.312;4.776;2023-12-04T00:34:46;22.05;;;14.65;;
30539;SDS011;17321;46.312;4.776;2023-12-04T00:37:12;25.40;;;14.68;;
30539;SDS011;17321;46.312;4.776;2023-12-04T00:39:38;22.00;;;14.60;;
30539;SDS011;17321;46.312;4.776;2023-12-04T00:42:04;18.67;;;13.25;;
30539;SDS011;17321;46.312;4.776;2023-12-04T00:44:30;20.33;;;13.48;;
30539;SDS011;17321;46.312;4.776;2023-12-04T00:46:56;20.83;;;14.23;;
30539;SDS011;17321;46.312;4.776;2023-12-04T00:49:23;23.20;;;13.93;;
30539;SDS011;17321;46.312;4.776;2023-12-04T00:51:49;23.48;;;14.90;;
30539;SDS011;17321;46.312;4.776;2023-12-04T00:54:15;18.92;;;13.52;;
30539;SDS011;17321;46.312;4.776;2023-12-04T00:56:41;21.17;;;13.98;;
30539;SDS011;17321;46.312;4.776;2023-12-04T00:59:08;22.13;;;14.32;;
30539;SDS011;17321;46.312;4.776;2023-12-04T01:01:37;23.60;;;14.63;;
30539;SDS011;17321;46.312;4.776;2023-12-04T01:04:03;25.17;;;14.77;;
30539;SDS011;17321;46.312;4.776;2023-12-04T01:06:29;22.98;;;14.50;;
30539;SDS011;17321;46.312;4.776;2023-12-04T01:08:55;23.70;;;15.13;;
30539;SDS011;17321;46.312;4.776;2023-12-04T01:11:22;23.92;;;14.63;;
30539;SDS011;17321;46.312;4.776;2023-12-04T01:13:48;25.48;;;14.80;;
30539;SDS011;17321;46.312;4.776;2023-12-04T01:16:14;19.83;;;13.27;;
30539;SDS011;17321;46.312;4.776;2023-12-04T01:18:42;25.83;;;15.43;;
30539;SDS011;17321;46.312;4.776;2023-12-04T01:21:08;22.95;;;14.23;;
30539;SDS011;17321;46.312;4.776;2023-12-04T01:23:35;24.15;;;15.35;;
30539;SDS011;17321;46.312;4.776;2023-12-04T01:26:04;23.38;;;14.80;;
30539;SDS011;17321;46.312;4.776;2023-12-04T01:28:30;20.08;;;14.15;;
30539;SDS011;17321;46.312;4.776;2023-12-04T01:30:56;21.23;;;14.50;;
30539;SDS011;17321;46.312;4.776;2023-12-04T01:33:22;25.05;;;15.07;;
30539;SDS011;17321;46.312;4.776;2023-12-04T01:35:48;21.52;;;14.50;;
30539;SDS011;17321;46.312;4.776;2023-12-04T01:38:14;25.92;;;15.82;;
30539;SDS011;17321;46.312;4.776;2023-12-04T01:40:40;24.33;;;15.13;;
30539;SDS011;17321;46.312;4.776;2023-12-04T01:43:06;22.58;;;14.70;;
30539;SDS011;17321;46.312;4.776;2023-12-04T01:45:32;22.83;;;14.77;;
30539;SDS011;17321;46.312;4.776;2023-12-04T01:47:58;22.30;;;14.77;;
30539;SDS011;17321;46.312;4.776;2023-12-04T01:50:25;22.48;;;14.68;;
30539;SDS011;17321;46.312;4.776;2023-12-04T01:52:51;24.02;;;14.65;;
30539;SDS011;17321;46.312;4.776;2023-12-04T01:55:17;24.38;;;15.77;;
30539;SDS011;17321;46.312;4.776;2023-12-04T01:57:44;22.33;;;14.80;;
30539;SDS011;17321;46.312;4.776;2023-12-04T02:00:11;23.80;;;14.90;;
30539;SDS011;17321;46.312;4.776;2023-12-04T02:02:38;23.35;;;15.00;;
30539;SDS011;17321;46.312;4.776;2023-12-04T02:05:04;22.58;;;14.80;;
30539;SDS011;17321;46.312;4.776;2023-12-04T02:07:31;25.83;;;14.57;;
30539;SDS011;17321;46.312;4.776;2023-12-04T02:09:57;24.25;;;15.20;;
30539;SDS011;17321;46.312;4.776;2023-12-04T02:12:23;25.38;;;12.68;;
30539;SDS011;17321;46.312;4.776;2023-12-04T02:14:50;20.23;;;13.77;;
30539;SDS011;17321;46.312;4.776;2023-12-04T02:17:16;19.40;;;12.68;;
30539;SDS011;17321;46.312;4.776;2023-12-04T02:19:42;20.65;;;12.60;;
30539;SDS011;17321;46.312;4.776;2023-12-04T02:22:08;24.48;;;14.30;;
30539;SDS011;17321;46.312;4.776;2023-12-04T02:24:34;19.15;;;12.07;;
30539;SDS011;17321;46.312;4.776;2023-12-04T02:27:04;22.25;;;12.95;;
30539;SDS011;17321;46.312;4.776;2023-12-04T02:29:34;21.83;;;13.10;;
30539;SDS011;17321;46.312;4.776;2023-12-04T02:32:03;22.27;;;13.05;;
30539;SDS011;17321;46.312;4.776;2023-12-04T02:34:29;18.58;;;12.23;;
30539;SDS011;17321;46.312;4.776;2023-12-04T02:36:57;18.75;;;12.73;;
30539;SDS011;17321;46.312;4.776;2023-12-04T02:39:23;22.45;;;13.07;;
30539;SDS011;17321;46.312;4.776;2023-12-04T02:41:50;20.67;;;12.77;;
30539;SDS011;17321;46.312;4.776;2023-12-04T02:44:16;19.85;;;13.35;;
30539;SDS011;17321;46.312;4.776;2023-12-04T02:46:42;21.17;;;13.20;;
30539;SDS011;17321;46.312;4.776;2023-12-04T02:49:08;19.92;;;12.82;;
30539;SDS011;17321;46.312;4.776;2023-12-04T02:51:34;20.88;;;12.52;;
30539;SDS011;17321;46.312;4.776;2023-12-04T02:54:00;18.10;;;12.23;;
30539;SDS011;17321;46.312;4.776;2023-12-04T02:56:26;21.35;;;12.25;;
30539;SDS011;17321;46.312;4.776;2023-12-04T02:58:52;17.95;;;12.77;;
30539;SDS011;17321;46.312;4.776;2023-12-04T03:01:18;15.93;;;10.75;;
30539;SDS011;17321;46.312;4.776;2023-12-04T03:03:44;18.55;;;10.93;;
30539;SDS011;17321;46.312;4.776;2023-12-04T03:06:10;18.15;;;11.68;;
30539;SDS011;17321;46.312;4.776;2023-12-04T03:08:36;18.70;;;11.65;;
30539;SDS011;17321;46.312;4.776;2023-12-04T03:11:02;19.55;;;11.80;;
30539;SDS011;17321;46.312;4.776;2023-12-04T03:13:28;17.45;;;11.18;;
30539;SDS011;17321;46.312;4.776;2023-12-04T03:15:54;16.45;;;10.95;;
30539;SDS011;17321;46.312;4.776;2023-12-04T03:18:20;18.33;;;11.20;;
30539;SDS011;17321;46.312;4.776;2023-12-04T03:20:48;26.45;;;11.10;;
30539;SDS011;17321;46.312;4.776;2023-12-04T03:23:14;19.80;;;11.15;;
30539;SDS011;17321;46.312;4.776;2023-12-04T03:25:40;18.63;;;12.30;;
30539;SDS011;17321;46.312;4.776;2023-12-04T03:28:06;17.00;;;11.63;;
30539;SDS011;17321;46.312;4.776;2023-12-04T03:30:32;18.40;;;12.25;;
30539;SDS011;17321;46.312;4.776;2023-12-04T03:32:58;18.48;;;11.75;;
30539;SDS011;17321;46.312;4.776;2023-12-04T03:35:24;18.55;;;11.50;;
30539;SDS011;17321;46.312;4.776;2023-12-04T03:37:50;22.30;;;12.25;;
30539;SDS011;17321;46.312;4.776;2023-12-04T03:40:16;20.15;;;11.55;;
30539;SDS011;17321;46.312;4.776;2023-12-04T03:42:42;19.08;;;11.77;;
30539;SDS011;17321;46.312;4.776;2023-12-04T03:45:08;18.00;;;11.48;;
30539;SDS011;17321;46.312;4.776;2023-12-04T03:47:34;19.13;;;10.90;;
30539;SDS011;17321;46.312;4.776;2023-12-04T03:50:00;17.23;;;11.75;;
30539;SDS011;17321;46.312;4.776;2023-12-04T03:52:26;16.50;;;11.32;;
30539;SDS011;17321;46.312;4.776;2023-12-04T03:54:52;15.80;;;10.90;;
30539;SDS011;17321;46.312;4.776;2023-12-04T03:57:18;19.45;;;12.00;;
30539;SDS011;17321;46.312;4.776;2023-12-04T03:59:44;18.80;;;12.18;;
30539;SDS011;17321;46.312;4.776;2023-12-04T04:02:10;16.80;;;10.77;;
30539;SDS011;17321;46.312;4.776;2023-12-04T04:04:36;20.85;;;11.45;;
30539;SDS011;17321;46.312;4.776;2023-12-04T04:07:02;19.50;;;11.48;;
30539;SDS011;17321;46.312;4.776;2023-12-04T04:09:28;17.63;;;10.93;;
30539;SDS011;17321;46.312;4.776;2023-12-04T04:11:54;14.98;;;10.32;;
30539;SDS011;17321;46.312;4.776;2023-12-04T04:14:20;16.30;;;10.77;;
30539;SDS011;17321;46.312;4.776;2023-12-04T04:16:48;16.10;;;10.20;;
30539;SDS011;17321;46.312;4.776;2023-12-04T04:19:14;16.25;;;10.68;;
30539;SDS011;17321;46.312;4.776;2023-12-04T04:21:40;18.50;;;11.93;;
30539;SDS011;17321;46.312;4.776;2023-12-04T04:24:06;18.67;;;12.10;;
30539;SDS011;17321;46.312;4.776;2023-12-04T04:26:32;18.38;;;11.35;;
30539;SDS011;17321;46.312;4.776;2023-12-04T04:28:58;17.55;;;11.40;;
30539;SDS011;17321;46.312;4.776;2023-12-04T04:31:24;14.93;;;10.65;;
30539;SDS011;17321;46.312;4.776;2023-12-04T04:33:50;19.73;;;11.75;;
30539;SDS011;17321;46.312;4.776;2023-12-04T04:36:16;16.05;;;11.18;;
30539;SDS011;17321;46.312;4.776;2023-12-04T04:38:42;17.60;;;11.38;;
30539;SDS011;17321;46.312;4.776;2023-12-04T04:41:13;18.92;;;11.07;;
30539;SDS011;17321;46.312;4.776;2023-12-04T04:43:39;20.73;;;11.50;;
30539;SDS011;17321;46.312;4.776;2023-12-04T04:46:05;18.90;;;10.90;;
30539;SDS011;17321;46.312;4.776;2023-12-04T04:48:31;17.55;;;11.13;;
30539;SDS011;17321;46.312;4.776;2023-12-04T04:50:57;17.80;;;10.93;;
30539;SDS011;17321;46.312;4.776;2023-12-04T04:53:23;17.17;;;11.68;;
30539;SDS011;17321;46.312;4.776;2023-12-04T04:55:49;17.75;;;11.35;;
30539;SDS011;17321;46.312;4.776;2023-12-04T04:58:16;14.52;;;9.98;;
30539;SDS011;17321;46.312;4.776;2023-12-04T05:00:42;16.80;;;11.05;;
30539;SDS011;17321;46.312;4.776;2023-12-04T05:03:08;17.95;;;9.90;;
30539;SDS011;17321;46.312;4.776;2023-12-04T05:05:34;19.60;;;9.68;;
30539;SDS011;17321;46.312;4.776;2023-12-04T05:08:00;17.83;;;10.82;;
30539;SDS011;17321;46.312;4.776;2023-12-04T05:10:26;17.48;;;10.02;;
30539;SDS011;17321;46.312;4.776;2023-12-04T05:12:52;17.60;;;9.35;;
30539;SDS011;17321;46.312;4.776;2023-12-04T05:15:18;13.80;;;8.27;;
30539;SDS011;17321;46.312;4.776;2023-12-04T05:17:44;18.73;;;9.75;;
30539;SDS011;17321;46.312;4.776;2023-12-04T05:20:10;12.32;;;8.35;;
30539;SDS011;17321;46.312;4.776;2023-12-04T05:22:36;12.57;;;8.65;;
30539;SDS011;17321;46.312;4.776;2023-12-04T05:25:02;19.80;;;10.23;;
30539;SDS011;17321;46.312;4.776;2023-12-04T05:27:28;14.25;;;8.77;;
30539;SDS011;17321;46.312;4.776;2023-12-04T05:29:54;13.38;;;7.60;;
30539;SDS011;17321;46.312;4.776;2023-12-04T05:32:20;16.23;;;8.65;;
30539;SDS011;17321;46.312;4.776;2023-12-04T05:34:46;14.75;;;7.90;;
30539;SDS011;17321;46.312;4.776;2023-12-04T05:37:12;11.55;;;7.43;;
30539;SDS011;17321;46.312;4.776;2023-12-04T05:39:38;12.25;;;7.88;;
30539;SDS011;17321;46.312;4.776;2023-12-04T05:42:04;13.75;;;7.40;;
30539;SDS011;17321;46.312;4.776;2023-12-04T05:44:31;11.35;;;7.80;;
30539;SDS011;17321;46.312;4.776;2023-12-04T05:46:57;9.80;;;6.70;;
30539;SDS011;17321;46.312;4.776;2023-12-04T05:49:23;10.82;;;7.30;;
30539;SDS011;17321;46.312;4.776;2023-12-04T05:51:49;15.82;;;7.65;;
30539;SDS011;17321;46.312;4.776;2023-12-04T05:54:15;11.60;;;6.97;;
30539;SDS011;17321;46.312;4.776;2023-12-04T05:56:41;13.05;;;7.00;;
30539;SDS011;17321;46.312;4.776;2023-12-04T05:59:08;12.40;;;7.60;;
30539;SDS011;17321;46.312;4.776;2023-12-04T06:01:34;10.95;;;7.30;;
30539;SDS011;17321;46.312;4.776;2023-12-04T06:04:00;12.15;;;7.53;;
30539;SDS011;17321;46.312;4.776;2023-12-04T06:06:26;12.20;;;7.55;;
30539;SDS011;17321;46.312;4.776;2023-12-04T06:08:52;11.25;;;7.40;;
30539;SDS011;17321;46.312;4.776;2023-12-04T06:11:18;11.45;;;7.70;;
30539;SDS011;17321;46.312;4.776;2023-12-04T06:13:44;12.43;;;7.07;;
30539;SDS011;17321;46.312;4.776;2023-12-04T06:16:10;12.50;;;7.40;;
30539;SDS011;17321;46.312;4.776;2023-12-04T06:18:36;13.98;;;7.70;;
30539;SDS011;17321;46.312;4.776;2023-12-04T06:21:02;9.57;;;6.72;;
30539;SDS011;17321;46.312;4.776;2023-12-04T06:23:28;10.90;;;6.55;;
30539;SDS011;17321;46.312;4.776;2023-12-04T06:25:54;11.75;;;6.63;;
30539;SDS011;17321;46.312;4.776;2023-12-04T06:28:21;11.15;;;6.88;;
30539;SDS011;17321;46.312;4.776;2023-12-04T06:30:47;11.75;;;7.10;;
30539;SDS011;17321;46.312;4.776;2023-12-04T06:33:13;12.70;;;7.15;;
30539;SDS011;17321;46.312;4.776;2023-12-04T06:35:40;14.13;;;7.72;;
30539;SDS011;17321;46.312;4.776;2023-12-04T06:38:06;17.30;;;7.18;;
30539;SDS011;17321;46.312;4.776;2023-12-04T06:40:33;10.70;;;7.32;;
30539;SDS011;17321;46.312;4.776;2023-12-04T06:42:59;13.65;;;7.97;;
30539;SDS011;17321;46.312;4.776;2023-12-04T06:45:25;10.35;;;7.32;;
30539;SDS011;17321;46.312;4.776;2023-12-04T06:47:52;11.88;;;6.97;;
30539;SDS011;17321;46.312;4.776;2023-12-04T06:50:19;9.35;;;6.75;;
30539;SDS011;17321;46.312;4.776;2023-12-04T06:52:45;14.75;;;8.05;;
30539;SDS011;17321;46.312;4.776;2023-12-04T06:55:12;9.90;;;7.32;;
30539;SDS011;17321;46.312;4.776;2023-12-04T06:57:38;15.68;;;7.68;;
30539;SDS011;17321;46.312;4.776;2023-12-04T07:00:04;11.32;;;7.65;;
30539;SDS011;17321;46.312;4.776;2023-12-04T07:02:37;13.80;;;8.30;;
30539;SDS011;17321;46.312;4.776;2023-12-04T07:05:03;11.85;;;8.23;;
30539;SDS011;17321;46.312;4.776;2023-12-04T07:07:29;15.90;;;8.93;;
30539;SDS011;17321;46.312;4.776;2023-12-04T07:09:55;12.30;;;8.27;;
30539;SDS011;17321;46.312;4.776;2023-12-04T07:12:21;14.40;;;8.20;;
30539;SDS011;17321;46.312;4.776;2023-12-04T07:14:47;12.32;;;8.18;;
30539;SDS011;17321;46.312;4.776;2023-12-04T07:17:13;12.40;;;9.05;;
30539;SDS011;17321;46.312;4.776;2023-12-04T07:19:40;13.82;;;8.13;;
30539;SDS011;17321;46.312;4.776;2023-12-04T07:22:06;12.68;;;7.55;;
30539;SDS011;17321;46.312;4.776;2023-12-04T07:24:32;11.98;;;7.65;;
30539;SDS011;17321;46.312;4.776;2023-12-04T07:26:59;13.45;;;7.85;;
30539;SDS011;17321;46.312;4.776;2023-12-04T07:29:25;15.88;;;9.25;;
30539;SDS011;17321;46.312;4.776;2023-12-04T07:31:51;11.32;;;7.45;;
30539;SDS011;17321;46.312;4.776;2023-12-04T07:34:17;15.93;;;8.15;;
30539;SDS011;17321;46.312;4.776;2023-12-04T07:36:43;15.60;;;8.02;;
30539;SDS011;17321;46.312;4.776;2023-12-04T07:39:13;13.68;;;8.07;;
30539;SDS011;17321;46.312;4.776;2023-12-04T07:41:40;14.75;;;8.38;;
30539;SDS011;17321;46.312;4.776;2023-12-04T07:44:06;13.82;;;8.23;;
30539;SDS011;17321;46.312;4.776;2023-12-04T07:46:32;16.33;;;8.48;;
30539;SDS011;17321;46.312;4.776;2023-12-04T07:48:58;14.45;;;8.75;;
30539;SDS011;17321;46.312;4.776;2023-12-04T07:51:24;17.63;;;9.23;;
30539;SDS011;17321;46.312;4.776;2023-12-04T07:53:50;16.88;;;9.77;;
30539;SDS011;17321;46.312;4.776;2023-12-04T07:56:15;18.15;;;11.02;;
30539;SDS011;17321;46.312;4.776;2023-12-04T07:58:42;18.33;;;9.82;;
30539;SDS011;17321;46.312;4.776;2023-12-04T08:01:08;15.90;;;8.98;;
30539;SDS011;17321;46.312;4.776;2023-12-04T08:03:34;15.65;;;7.68;;
30539;SDS011;17321;46.312;4.776;2023-12-04T08:06:00;14.25;;;8.43;;
30539;SDS011;17321;46.312;4.776;2023-12-04T08:08:26;9.77;;;6.85;;
30539;SDS011;17321;46.312;4.776;2023-12-04T08:10:52;11.57;;;6.95;;
30539;SDS011;17321;46.312;4.776;2023-12-04T08:13:18;13.25;;;6.80;;
30539;SDS011;17321;46.312;4.776;2023-12-04T08:15:44;10.40;;;6.72;;
30539;SDS011;17321;46.312;4.776;2023-12-04T08:18:10;13.85;;;6.97;;
30539;SDS011;17321;46.312;4.776;2023-12-04T08:20:36;10.63;;;7.13;;
30539;SDS011;17321;46.312;4.776;2023-12-04T08:23:02;10.90;;;6.90;;
30539;SDS011;17321;46.312;4.776;2023-12-04T08:25:28;17.10;;;7.28;;
30539;SDS011;17321;46.312;4.776;2023-12-04T08:27:54;12.95;;;7.35;;
30539;SDS011;17321;46.312;4.776;2023-12-04T08:30:21;9.88;;;6.97;;
30539;SDS011;17321;46.312;4.776;2023-12-04T08:32:46;10.52;;;6.18;;
30539;SDS011;17321;46.312;4.776;2023-12-04T08:35:13;15.07;;;6.07;;
30539;SDS011;17321;46.312;4.776;2023-12-04T08:37:39;8.70;;;6.32;;
30539;SDS011;17321;46.312;4.776;2023-12-04T08:40:05;14.95;;;6.68;;
30539;SDS011;17321;46.312;4.776;2023-12-04T08:42:33;11.80;;;5.90;;
30539;SDS011;17321;46.312;4.776;2023-12-04T08:44:59;9.93;;;5.35;;
30539;SDS011;17321;46.312;4.776;2023-12-04T08:47:25;9.43;;;5.78;;
30539;SDS011;17321;46.312;4.776;2023-12-04T08:49:51;9.98;;;5.95;;
30539;SDS011;17321;46.312;4.776;2023-12-04T08:52:17;13.45;;;5.57;;
30539;SDS011;17321;46.312;4.776;2023-12-04T08:54:43;14.45;;;6.25;;
30539;SDS011;17321;46.312;4.776;2023-12-04T08:57:09;11.68;;;5.03;;
30539;SDS011;17321;46.312;4.776;2023-12-04T08:59:35;9.20;;;4.65;;
30539;SDS011;17321;46.312;4.776;2023-12-04T09:02:01;9.45;;;4.15;;
30539;SDS011;17321;46.312;4.776;2023-12-04T09:04:29;6.15;;;3.80;;
30539;SDS011;17321;46.312;4.776;2023-12-04T09:06:56;13.20;;;5.38;;
30539;SDS011;17321;46.312;4.776;2023-12-04T09:09:22;12.63;;;6.55;;
30539;SDS011;17321;46.312;4.776;2023-12-04T09:11:47;11.95;;;5.90;;
30539;SDS011;17321;46.312;4.776;2023-12-04T09:14:13;6.50;;;3.22;;
30539;SDS011;17321;46.312;4.776;2023-12-04T09:16:40;5.00;;;2.95;;
30539;SDS011;17321;46.312;4.776;2023-12-04T09:19:06;6.38;;;3.70;;
30539;SDS011;17321;46.312;4.776;2023-12-04T09:21:32;10.43;;;3.60;;
30539;SDS011;17321;46.312;4.776;2023-12-04T09:23:58;7.03;;;3.42;;
30539;SDS011;17321;46.312;4.776;2023-12-04T09:26:24;7.32;;;2.90;;
30539;SDS011;17321;46.312;4.776;2023-12-04T09:28:50;8.77;;;3.35;;
30539;SDS011;17321;46.312;4.776;2023-12-04T09:31:16;7.57;;;3.33;;
30539;SDS011;17321;46.312;4.776;2023-12-04T09:33:43;11.93;;;3.60;;
30539;SDS011;17321;46.312;4.776;2023-12-04T09:36:09;9.38;;;4.57;;
30539;SDS011;17321;46.312;4.776;2023-12-04T09:38:35;13.30;;;6.40;;
30539;SDS011;17321;46.312;4.776;2023-12-04T09:41:01;10.48;;;3.97;;
30539;SDS011;17321;46.312;4.776;2023-12-04T09:43:30;9.32;;;4.88;;
30539;SDS011;17321;46.312;4.776;2023-12-04T09:45:57;11.73;;;3.47;;
30539;SDS011;17321;46.312;4.776;2023-12-04T09:48:24;3.15;;;2.42;;
30539;SDS011;17321;46.312;4.776;2023-12-04T09:50:51;7.65;;;2.47;;
30539;SDS011;17321;46.312;4.776;2023-12-04T09:53:18;6.15;;;3.40;;
30539;SDS011;17321;46.312;4.776;2023-12-04T09:55:47;5.32;;;2.92;;
30539;SDS011;17321;46.312;4.776;2023-12-04T09:58:13;8.98;;;3.10;;
30539;SDS011;17321;46.312;4.776;2023-12-04T10:00:41;8.85;;;2.40;;
30539;SDS011;17321;46.312;4.776;2023-12-04T10:03:07;9.35;;;2.97;;
30539;SDS011;17321;46.312;4.776;2023-12-04T10:05:33;5.15;;;2.47;;
30539;SDS011;17321;46.312;4.776;2023-12-04T10:07:59;5.35;;;2.90;;
30539;SDS011;17321;46.312;4.776;2023-12-04T10:10:25;7.32;;;3.40;;
30539;SDS011;17321;46.312;4.776;2023-12-04T10:12:51;8.10;;;3.55;;
30539;SDS011;17321;46.312;4.776;2023-12-04T10:15:17;9.32;;;4.50;;
30539;SDS011;17321;46.312;4.776;2023-12-04T10:17:43;6.85;;;3.72;;
30539;SDS011;17321;46.312;4.776;2023-12-04T10:20:14;10.32;;;4.93;;
30539;SDS011;17321;46.312;4.776;2023-12-04T10:22:56;6.50;;;3.30;;
30539;SDS011;17321;46.312;4.776;2023-12-04T10:25:23;10.80;;;3.13;;
30539;SDS011;17321;46.312;4.776;2023-12-04T10:27:50;6.10;;;3.33;;
30539;SDS011;17321;46.312;4.776;2023-12-04T10:30:23;12.55;;;3.25;;
30539;SDS011;17321;46.312;4.776;2023-12-04T10:32:53;11.60;;;3.78;;
30539;SDS011;17321;46.312;4.776;2023-12-04T10:35:19;9.98;;;3.70;;
30539;SDS011;17321;46.312;4.776;2023-12-04T10:37:45;10.15;;;3.88;;
30539;SDS011;17321;46.312;4.776;2023-12-04T10:40:12;9.75;;;3.63;;
30539;SDS011;17321;46.312;4.776;2023-12-04T10:42:48;10.30;;;5.07;;
30539;SDS011;17321;46.312;4.776;2023-12-04T10:45:14;8.88;;;2.95;;
30539;SDS011;17321;46.312;4.776;2023-12-04T10:47:40;8.30;;;3.42;;
30539;SDS011;17321;46.312;4.776;2023-12-04T10:50:06;4.20;;;3.00;;
30539;SDS011;17321;46.312;4.776;2023-12-04T10:52:32;14.73;;;3.95;;
30539;SDS011;17321;46.312;4.776;2023-12-04T10:54:59;7.68;;;3.58;;
30539;SDS011;17321;46.312;4.776;2023-12-04T10:57:27;6.57;;;3.10;;
30539;SDS011;17321;46.312;4.776;2023-12-04T10:59:57;9.82;;;3.22;;
30539;SDS011;17321;46.312;4.776;2023-12-04T11:02:25;5.40;;;3.33;;
30539;SDS011;17321;46.312;4.776;2023-12-04T11:04:52;10.07;;;4.20;;
30539;SDS011;17321;46.312;4.776;2023-12-04T11:07:20;7.68;;;3.30;;
30539;SDS011;17321;46.312;4.776;2023-12-04T11:09:46;5.88;;;3.60;;
30539;SDS011;17321;46.312;4.776;2023-12-04T11:12:14;6.32;;;3.58;;
30539;SDS011;17321;46.312;4.776;2023-12-04T11:14:45;7.93;;;3.28;;
30539;SDS011;17321;46.312;4.776;2023-12-04T11:17:13;7.95;;;3.60;;
30539;SDS011;17321;46.312;4.776;2023-12-04T11:19:46;11.00;;;3.53;;
30539;SDS011;17321;46.312;4.776;2023-12-04T11:22:13;9.90;;;3.08;;
30539;SDS011;17321;46.312;4.776;2023-12-04T11:24:40;7.18;;;3.40;;
30539;SDS011;17321;46.312;4.776;2023-12-04T11:27:06;9.75;;;3.65;;
30539;SDS011;17321;46.312;4.776;2023-12-04T11:29:33;5.63;;;3.88;;
30539;SDS011;17321;46.312;4.776;2023-12-04T11:32:00;6.20;;;3.45;;
30539;SDS011;17321;46.312;4.776;2023-12-04T11:34:26;12.35;;;3.92;;
30539;SDS011;17321;46.312;4.776;2023-12-04T11:36:51;6.25;;;3.20;;
30539;SDS011;17321;46.312;4.776;2023-12-04T11:39:18;7.80;;;4.05;;
30539;SDS011;17321;46.312;4.776;2023-12-04T11:41:44;6.78;;;4.03;;
30539;SDS011;17321;46.312;4.776;2023-12-04T11:44:14;4.72;;;3.80;;
30539;SDS011;17321;46.312;4.776;2023-12-04T11:49:39;10.75;;;4.20;;
30539;SDS011;17321;46.312;4.776;2023-12-04T11:51:58;10.60;;;4.13;;
30539;SDS011;17321;46.312;4.776;2023-12-04T11:54:25;7.03;;;4.18;;
30539;SDS011;17321;46.312;4.776;2023-12-04T11:56:56;8.82;;;3.42;;
30539;SDS011;17321;46.312;4.776;2023-12-04T11:59:22;5.85;;;3.50;;
30539;SDS011;17321;46.312;4.776;2023-12-04T12:01:52;4.07;;;2.95;;
30539;SDS011;17321;46.312;4.776;2023-12-04T12:04:19;6.95;;;3.53;;
30539;SDS011;17321;46.312;4.776;2023-12-04T12:06:45;6.38;;;3.15;;
30539;SDS011;17321;46.312;4.776;2023-12-04T12:09:12;8.00;;;2.88;;
30539;SDS011;17321;46.312;4.776;2023-12-04T12:11:38;4.70;;;2.80;;
30539;SDS011;17321;46.312;4.776;2023-12-04T12:14:05;5.43;;;2.92;;
30539;SDS011;17321;46.312;4.776;2023-12-04T12:16:31;6.20;;;2.40;;
30539;SDS011;17321;46.312;4.776;2023-12-04T12:18:57;6.65;;;2.40;;
30539;SDS011;17321;46.312;4.776;2023-12-04T12:21:23;5.70;;;2.20;;
30539;SDS011;17321;46.312;4.776;2023-12-04T12:23:50;5.60;;;2.10;;
30539;SDS011;17321;46.312;4.776;2023-12-04T12:26:16;6.80;;;2.00;;
30539;SDS011;17321;46.312;4.776;2023-12-04T12:28:42;7.20;;;2.10;;
30539;SDS011;17321;46.312;4.776;2023-12-04T12:31:08;3.13;;;1.50;;
30539;SDS011;17321;46.312;4.776;2023-12-04T12:33:34;2.10;;;1.90;;
30539;SDS011;17321;46.312;4.776;2023-12-04T12:36:00;3.50;;;1.30;;
30539;SDS011;17321;46.312;4.776;2023-12-04T12:38:29;3.17;;;1.20;;
30539;SDS011;17321;46.312;4.776;2023-12-04T12:40:59;1.98;;;1.15;;
30539;SDS011;17321;46.312;4.776;2023-12-04T12:43:27;3.30;;;1.30;;
30539;SDS011;17321;46.312;4.776;2023-12-04T12:45:53;8.40;;;1.20;;
30539;SDS011;17321;46.312;4.776;2023-12-04T12:48:19;2.13;;;1.13;;
30539;SDS011;17321;46.312;4.776;2023-12-04T12:50:48;5.40;;;1.35;;
